Local area metar reports


Our local metar:
KGOO 160255Z AUTO 00000KT 10SM CLR 26/07 A3003 RMK A01

Decoded:

station                        KGOO
observed_date Tue, 16 Jul 2019 02:55:00 +0000
observed_age 9 min. ago
wind_speed 0
wind_direction 0
wind_direction_label N
visibility_report 10 miles
present_weather_report Dry
clouds_report Clear skies
temperature_f 79
dew_point_f 45
humidity 30
barometer 30.03
remarks A01

Auburn metar:
KAUN 160255Z AUTO 00000KT 10SM CLR 30/09 A2993 RMK A01

Decoded:

station                        KAUN
observed_date Tue, 16 Jul 2019 02:55:00 +0000
observed_age 9 min. ago
wind_speed 0
wind_direction 0
wind_direction_label N
visibility_report 10 miles
present_weather_report Dry
clouds_report Clear skies
temperature_f 86
dew_point_f 48
humidity 27
barometer 29.93
remarks A01

Lincoln metar:
KLHM 160255Z AUTO 20007KT 10SM CLR 32/13 A2983 RMK AO1

Decoded:

station                        KLHM
observed_date Tue, 16 Jul 2019 02:55:00 +0000
observed_age 9 min. ago
wind_speed 7
wind_direction 200
wind_direction_label SSW
visibility_report 10 miles
present_weather_report Dry
clouds_report Clear skies
temperature_f 90
dew_point_f 55
humidity 31
barometer 29.83
remarks AO1